createdAt,value
2023-02-08T00:00:59.604Z,21.15
2023-02-08T00:03:29.111Z,21.70
2023-02-08T00:05:56.643Z,19.83
2023-02-08T00:08:24.036Z,20.00
2023-02-08T00:10:51.761Z,19.83
2023-02-08T00:13:19.397Z,19.48
2023-02-08T00:15:47.243Z,20.80
2023-02-08T00:18:15.120Z,20.42
2023-02-08T00:20:43.400Z,21.50
2023-02-08T00:23:11.475Z,23.87
2023-02-08T00:25:39.880Z,23.73
2023-02-08T00:28:09.481Z,22.33
2023-02-08T00:30:37.170Z,22.90
2023-02-08T00:33:05.110Z,24.05
2023-02-08T00:35:32.600Z,22.83
2023-02-08T00:38:00.111Z,23.15
2023-02-08T00:40:28.263Z,21.77
2023-02-08T00:42:57.770Z,22.33
2023-02-08T00:45:25.256Z,22.37
2023-02-08T00:47:53.049Z,21.73
2023-02-08T00:50:21.393Z,21.85
2023-02-08T00:52:48.813Z,23.00
2023-02-08T00:55:16.605Z,22.33
2023-02-08T00:57:44.036Z,20.55
2023-02-08T01:00:12.058Z,18.58
2023-02-08T01:02:39.771Z,18.90
2023-02-08T01:05:07.425Z,16.33
2023-02-08T01:07:37.493Z,17.60
2023-02-08T01:10:06.419Z,16.55
2023-02-08T01:12:35.243Z,16.15
2023-02-08T01:15:02.710Z,15.75
2023-02-08T01:17:31.180Z,15.30
2023-02-08T01:19:58.576Z,22.00
2023-02-08T01:22:26.034Z,24.37
2023-02-08T01:24:53.718Z,24.98
2023-02-08T01:27:21.099Z,23.95
2023-02-08T01:29:48.442Z,25.45
2023-02-08T01:32:16.122Z,21.58
2023-02-08T01:34:44.282Z,21.92
2023-02-08T01:37:11.914Z,19.40
2023-02-08T01:39:39.607Z,17.67
2023-02-08T01:42:07.038Z,15.98
2023-02-08T01:45:11.906Z,16.12
2023-02-08T01:47:39.692Z,15.43
2023-02-08T01:50:07.318Z,16.02
2023-02-08T01:52:34.854Z,16.80
2023-02-08T01:55:10.163Z,16.80
2023-02-08T01:57:37.699Z,16.17
2023-02-08T02:00:15.232Z,16.33
2023-02-08T02:02:44.377Z,15.82
2023-02-08T02:05:12.427Z,16.67
2023-02-08T02:07:39.999Z,15.50
2023-02-08T02:10:25.714Z,15.32
2023-02-08T02:12:55.928Z,15.20
2023-02-08T02:15:23.690Z,15.27
2023-02-08T02:17:51.422Z,16.35
2023-02-08T02:20:22.873Z,14.90
2023-02-08T02:23:16.858Z,16.00
2023-02-08T02:26:11.036Z,14.35
2023-02-08T02:28:47.619Z,14.68
2023-02-08T02:31:15.312Z,14.50
2023-02-08T02:33:48.727Z,15.57
2023-02-08T02:37:02.942Z,15.10
2023-02-08T02:42:29.445Z,14.20
2023-02-08T02:45:02.763Z,17.27
2023-02-08T02:47:38.994Z,18.48
2023-02-08T02:50:32.246Z,18.80
2023-02-08T02:53:26.787Z,19.05
2023-02-08T02:56:02.007Z,16.08
2023-02-08T02:58:31.294Z,13.85
2023-02-08T03:00:59.416Z,11.63
2023-02-08T03:03:28.789Z,9.70
2023-02-08T03:05:59.979Z,10.88
2023-02-08T03:08:33.560Z,9.00
2023-02-08T03:11:11.056Z,8.00
2023-02-08T03:14:01.048Z,7.20
2023-02-08T03:16:38.459Z,9.00
2023-02-08T03:19:24.501Z,10.20
2023-02-08T03:21:59.286Z,10.85
2023-02-08T03:24:26.665Z,10.02
2023-02-08T03:27:03.822Z,11.63
2023-02-08T03:30:08.454Z,11.35
2023-02-08T03:32:40.455Z,11.95
2023-02-08T03:35:11.781Z,10.40
2023-02-08T03:37:47.755Z,10.07
2023-02-08T03:40:22.862Z,9.75
2023-02-08T03:42:53.085Z,9.55
2023-02-08T03:45:24.134Z,9.90
2023-02-08T03:47:53.457Z,9.25
2023-02-08T03:50:21.781Z,10.05
2023-02-08T03:52:50.796Z,9.77
2023-02-08T03:55:22.234Z,9.88
2023-02-08T03:58:05.278Z,10.25
2023-02-08T04:00:36.654Z,9.73
2023-02-08T04:03:12.338Z,9.60
2023-02-08T04:05:40.085Z,8.57
2023-02-08T04:08:07.936Z,8.90
2023-02-08T04:10:35.291Z,8.23
2023-02-08T04:13:02.727Z,7.75
2023-02-08T04:15:31.081Z,8.02
2023-02-08T04:17:58.564Z,8.35
2023-02-08T04:20:25.976Z,7.53
2023-02-08T04:22:53.675Z,7.80
2023-02-08T04:25:21.247Z,7.25
2023-02-08T04:27:48.696Z,7.53
2023-02-08T04:30:16.497Z,7.80
2023-02-08T04:32:44.196Z,7.22
2023-02-08T04:35:11.557Z,6.53
2023-02-08T04:37:39.226Z,6.45
2023-02-08T04:40:06.887Z,6.85
2023-02-08T04:42:35.036Z,7.07
2023-02-08T04:45:02.801Z,8.10
2023-02-08T04:47:30.236Z,7.43
2023-02-08T04:49:57.641Z,7.85
2023-02-08T04:52:25.302Z,7.28
2023-02-08T04:54:52.658Z,8.00
2023-02-08T04:57:20.090Z,8.80
2023-02-08T04:59:47.931Z,8.05
2023-02-08T05:02:15.343Z,8.82
2023-02-08T05:04:42.715Z,9.05
2023-02-08T05:07:10.360Z,8.38
2023-02-08T05:09:37.748Z,7.50
2023-02-08T05:12:05.316Z,9.00
2023-02-08T05:14:33.000Z,9.18
2023-02-08T05:17:00.420Z,9.30
2023-02-08T05:19:27.904Z,9.23
2023-02-08T05:21:55.584Z,9.35
2023-02-08T05:24:23.039Z,9.40
2023-02-08T05:26:50.575Z,8.82
2023-02-08T05:29:18.234Z,8.32
2023-02-08T05:31:45.717Z,8.68
2023-02-08T05:34:13.158Z,9.23
2023-02-08T05:36:40.801Z,8.70
2023-02-08T05:39:08.513Z,8.52
2023-02-08T05:41:36.138Z,9.50
2023-02-08T05:44:03.865Z,10.43
2023-02-08T05:46:31.353Z,10.73
2023-02-08T05:48:58.833Z,9.63
2023-02-08T05:51:26.664Z,10.23
2023-02-08T05:53:54.072Z,10.73
2023-02-08T05:56:21.447Z,10.77
2023-02-08T05:58:49.118Z,10.63
2023-02-08T06:01:16.569Z,9.07
2023-02-08T06:03:44.236Z,9.60
2023-02-08T06:06:11.855Z,8.95
2023-02-08T06:08:40.206Z,8.30
2023-02-08T06:11:08.020Z,7.68
2023-02-08T06:13:35.457Z,7.62
2023-02-08T06:16:02.874Z,7.50
2023-02-08T06:18:30.529Z,7.80
2023-02-08T06:20:58.063Z,7.55
2023-02-08T06:23:25.494Z,6.78
2023-02-08T06:25:53.545Z,7.35
2023-02-08T06:28:20.979Z,6.80
2023-02-08T06:30:52.048Z,5.80
2023-02-08T06:33:19.769Z,5.70
2023-02-08T06:35:48.137Z,6.18
2023-02-08T06:38:15.593Z,5.82
2023-02-08T06:40:43.533Z,6.07
2023-02-08T06:43:11.295Z,6.00
2023-02-08T06:45:38.700Z,6.57
2023-02-08T06:48:06.442Z,6.18
2023-02-08T06:50:33.995Z,6.37
2023-02-08T06:53:01.435Z,6.12
2023-02-08T06:55:29.131Z,6.62
2023-02-08T06:57:56.866Z,8.10
2023-02-08T07:00:24.327Z,9.15
2023-02-08T07:02:52.646Z,7.55
2023-02-08T07:05:20.023Z,7.95
2023-02-08T07:07:48.750Z,6.03
2023-02-08T07:10:16.925Z,5.95
2023-02-08T07:12:44.345Z,6.45
2023-02-08T07:15:13.322Z,6.47
2023-02-08T07:17:41.126Z,5.35
2023-02-08T07:20:09.618Z,5.72
2023-02-08T07:22:37.600Z,5.05
2023-02-08T07:25:07.212Z,5.68
2023-02-08T07:27:35.629Z,5.60
2023-02-08T07:30:03.431Z,6.15
2023-02-08T07:32:33.689Z,6.05
2023-02-08T07:35:02.060Z,6.20
2023-02-08T07:37:29.445Z,6.72
2023-02-08T07:39:57.152Z,5.93
2023-02-08T07:42:24.513Z,6.12
2023-02-08T07:44:52.662Z,6.45
2023-02-08T07:47:20.458Z,6.65
2023-02-08T07:49:47.878Z,6.45
2023-02-08T07:52:15.408Z,6.30
2023-02-08T07:54:43.073Z,6.28
2023-02-08T07:57:10.468Z,6.47
2023-02-08T07:59:37.865Z,6.28
2023-02-08T08:02:05.573Z,6.57
2023-02-08T08:04:33.322Z,6.10
2023-02-08T08:07:00.736Z,6.60
2023-02-08T08:09:28.219Z,6.47
2023-02-08T08:11:55.925Z,5.85
2023-02-08T08:14:23.314Z,6.30
2023-02-08T08:16:50.674Z,6.00
2023-02-08T08:19:18.381Z,6.28
2023-02-08T08:21:45.837Z,6.43
2023-02-08T08:24:13.182Z,6.47
2023-02-08T08:26:40.947Z,5.57
2023-02-08T08:29:08.378Z,6.20
2023-02-08T08:31:36.843Z,6.32
2023-02-08T08:34:04.567Z,6.00
2023-02-08T08:36:32.203Z,7.78
2023-02-08T08:38:59.570Z,6.03
2023-02-08T08:41:28.276Z,6.50
2023-02-08T08:43:55.943Z,6.28
2023-02-08T08:46:23.421Z,5.97
2023-02-08T08:48:52.063Z,6.40
2023-02-08T08:51:19.794Z,6.75
2023-02-08T08:53:47.218Z,7.03
2023-02-08T08:56:14.877Z,6.72
2023-02-08T08:58:43.389Z,7.55
2023-02-08T09:01:10.880Z,7.25
2023-02-08T09:03:38.611Z,7.50
2023-02-08T09:06:06.250Z,7.55
2023-02-08T09:08:33.703Z,7.35
2023-02-08T09:11:08.751Z,7.12
2023-02-08T09:13:36.391Z,8.25
2023-02-08T09:16:17.635Z,7.72
2023-02-08T09:18:45.661Z,8.00
2023-02-08T09:21:15.961Z,7.53
2023-02-08T09:23:43.722Z,7.47
2023-02-08T09:26:12.948Z,7.30
2023-02-08T09:28:40.698Z,7.57
2023-02-08T09:31:31.879Z,7.72
2023-02-08T09:34:00.895Z,6.93
2023-02-08T09:36:40.648Z,5.85
2023-02-08T09:39:14.933Z,6.10
2023-02-08T09:42:20.847Z,6.85
2023-02-08T09:45:10.054Z,5.93
2023-02-08T09:48:01.162Z,6.03
2023-02-08T09:50:42.728Z,5.90
2023-02-08T09:53:24.778Z,6.40
2023-02-08T09:56:07.514Z,6.32
2023-02-08T09:58:41.863Z,6.07
2023-02-08T10:01:19.339Z,5.87
2023-02-08T10:03:47.417Z,6.47
2023-02-08T10:06:17.083Z,6.37
2023-02-08T10:08:45.398Z,6.30
2023-02-08T10:11:29.205Z,6.05
2023-02-08T10:14:23.186Z,6.07
2023-02-08T10:16:53.813Z,5.82
2023-02-08T10:19:42.241Z,5.55
2023-02-08T10:22:21.707Z,6.43
2023-02-08T10:24:57.926Z,6.00
2023-02-08T10:28:02.754Z,5.95
2023-02-08T10:30:42.250Z,6.22
2023-02-08T10:33:21.727Z,6.05
2023-02-08T10:35:50.776Z,6.25
2023-02-08T10:38:21.125Z,6.20
2023-02-08T10:40:52.326Z,7.03
2023-02-08T10:43:19.937Z,6.18
2023-02-08T10:45:49.728Z,7.30
2023-02-08T10:48:35.422Z,6.62
2023-02-08T10:51:03.750Z,7.03
2023-02-08T10:53:31.346Z,7.00
2023-02-08T10:55:58.730Z,6.45
2023-02-08T10:58:26.720Z,7.80
2023-02-08T11:00:54.334Z,6.82
2023-02-08T11:03:24.396Z,6.78
2023-02-08T11:05:52.881Z,7.20
2023-02-08T11:08:25.109Z,7.12
2023-02-08T11:11:03.965Z,7.62
2023-02-08T11:13:41.550Z,6.68
2023-02-08T11:16:20.644Z,6.90
2023-02-08T11:18:49.367Z,6.65
2023-02-08T11:21:33.442Z,7.43
2023-02-08T11:24:28.975Z,7.50
2023-02-08T11:26:56.748Z,7.07
2023-02-08T11:29:29.546Z,7.18
2023-02-08T11:32:00.784Z,7.78
2023-02-08T11:34:33.623Z,7.15
2023-02-08T11:37:04.696Z,7.30
2023-02-08T11:39:45.998Z,7.30
2023-02-08T11:42:21.242Z,7.65
2023-02-08T11:44:49.634Z,7.55
2023-02-08T11:47:40.714Z,7.37
2023-02-08T11:50:09.101Z,6.10
2023-02-08T11:52:39.380Z,6.35
2023-02-08T11:55:18.954Z,8.02
2023-02-08T11:58:14.347Z,6.78
2023-02-08T12:00:41.736Z,5.68
2023-02-08T12:03:20.409Z,6.30
2023-02-08T12:05:57.691Z,5.30
2023-02-08T12:08:46.310Z,5.40
2023-02-08T12:11:25.242Z,6.40
2023-02-08T12:14:11.666Z,5.95
2023-02-08T12:16:45.579Z,5.78
2023-02-08T12:19:32.230Z,5.80
2023-02-08T12:22:10.457Z,6.97
2023-02-08T12:24:49.409Z,6.75
2023-02-08T12:27:41.749Z,6.70
2023-02-08T12:30:19.058Z,6.53
2023-02-08T12:33:01.199Z,6.30
2023-02-08T12:36:04.090Z,6.12
2023-02-08T12:42:02.725Z,6.80
2023-02-08T12:47:20.459Z,6.82
2023-02-08T12:50:08.200Z,6.65
2023-02-08T12:52:43.836Z,5.93
2023-02-08T12:55:29.382Z,5.28
2023-02-08T12:58:30.389Z,5.28
2023-02-08T13:01:06.653Z,5.70
2023-02-08T13:03:43.564Z,5.00
2023-02-08T13:06:16.882Z,5.87
2023-02-08T13:08:57.683Z,5.22
2023-02-08T13:11:38.191Z,6.15
2023-02-08T13:14:13.592Z,5.30
2023-02-08T13:16:47.258Z,5.78
2023-02-08T13:19:29.733Z,5.45
2023-02-08T13:21:58.815Z,5.53
2023-02-08T13:24:38.727Z,5.32
2023-02-08T13:27:08.101Z,5.53
2023-02-08T13:29:36.273Z,5.45
2023-02-08T13:32:07.009Z,5.25
2023-02-08T13:34:38.730Z,4.82
2023-02-08T13:37:24.891Z,5.40
2023-02-08T13:40:26.213Z,6.43
2023-02-08T13:43:06.635Z,6.07
2023-02-08T13:45:42.865Z,8.82
2023-02-08T13:48:17.006Z,7.65
2023-02-08T13:50:51.884Z,7.65
2023-02-08T13:53:39.898Z,7.15
2023-02-08T13:56:12.694Z,7.07
2023-02-08T13:58:49.697Z,6.47
2023-02-08T14:01:28.771Z,7.70
2023-02-08T14:04:08.743Z,8.27
2023-02-08T14:06:48.302Z,8.27
2023-02-08T14:09:51.477Z,5.37
2023-02-08T14:12:32.594Z,6.68
2023-02-08T14:17:56.654Z,5.90
2023-02-08T14:20:40.440Z,6.30
2023-02-08T14:23:30.660Z,6.27
2023-02-08T14:26:03.451Z,6.22
2023-02-08T14:31:09.082Z,5.80
2023-02-08T14:33:39.742Z,5.60
2023-02-08T14:36:21.995Z,4.87
2023-02-08T14:39:05.326Z,4.30
2023-02-08T14:41:51.120Z,4.68
2023-02-08T14:44:48.846Z,4.55
2023-02-08T14:47:29.099Z,5.37
2023-02-08T14:50:16.407Z,4.65
2023-02-08T14:53:13.528Z,5.40
2023-02-08T14:55:46.327Z,5.37
2023-02-08T14:58:20.407Z,6.05
2023-02-08T15:00:51.179Z,6.50
2023-02-08T15:03:19.012Z,6.32
2023-02-08T15:06:23.422Z,6.72
2023-02-08T15:08:52.650Z,5.87
2023-02-08T15:11:22.802Z,5.55
2023-02-08T15:13:51.421Z,5.87
2023-02-08T15:16:19.386Z,5.45
2023-02-08T15:18:48.490Z,5.30
2023-02-08T15:21:21.407Z,6.57
2023-02-08T15:24:00.386Z,5.75
2023-02-08T15:26:28.147Z,6.12
2023-02-08T15:28:56.335Z,5.80
2023-02-08T15:31:28.835Z,6.28
2023-02-08T15:33:58.390Z,7.40
2023-02-08T15:36:31.671Z,6.72
2023-02-08T15:39:01.868Z,8.52
2023-02-08T15:41:38.166Z,8.38
2023-02-08T15:44:24.157Z,8.07
2023-02-08T15:46:55.022Z,29.25
2023-02-08T15:49:41.525Z,19.33
2023-02-08T15:52:15.954Z,13.40
2023-02-08T15:54:44.418Z,13.07
2023-02-08T15:57:29.342Z,15.25
2023-02-08T15:59:57.254Z,9.30
2023-02-08T16:02:32.787Z,8.80
2023-02-08T16:05:01.722Z,8.57
2023-02-08T16:07:37.173Z,9.10
2023-02-08T16:10:06.810Z,10.68
2023-02-08T16:12:34.969Z,11.02
2023-02-08T16:15:02.424Z,10.90
2023-02-08T16:17:38.432Z,10.13
2023-02-08T16:20:30.068Z,8.80
2023-02-08T16:23:02.348Z,9.38
2023-02-08T16:25:29.631Z,9.52
2023-02-08T16:27:57.153Z,9.80
2023-02-08T16:30:25.106Z,11.05
2023-02-08T16:32:52.680Z,10.10
2023-02-08T16:35:33.496Z,10.38
2023-02-08T16:38:02.837Z,11.45
2023-02-08T16:40:32.871Z,11.10
2023-02-08T16:43:26.277Z,12.02
2023-02-08T16:46:17.345Z,14.93
2023-02-08T16:48:55.824Z,16.20
2023-02-08T16:51:27.393Z,18.00
2023-02-08T16:53:57.338Z,18.20
2023-02-08T16:56:25.497Z,19.27
2023-02-08T16:58:53.155Z,19.10
2023-02-08T17:01:22.968Z,18.87
2023-02-08T17:03:52.994Z,17.67
2023-02-08T17:06:30.540Z,18.90
2023-02-08T17:08:58.815Z,19.45
2023-02-08T17:11:26.682Z,18.85
2023-02-08T17:13:54.392Z,19.92
2023-02-08T17:16:24.135Z,20.40
2023-02-08T17:18:52.426Z,20.08
2023-02-08T17:21:19.812Z,20.52
2023-02-08T17:23:47.792Z,23.20
2023-02-08T17:26:17.435Z,24.55
2023-02-08T17:28:44.971Z,23.00
2023-02-08T17:31:13.605Z,21.67
2023-02-08T17:33:41.392Z,23.15
2023-02-08T17:36:10.751Z,24.10
2023-02-08T17:38:39.471Z,23.08
2023-02-08T17:41:18.396Z,23.87
2023-02-08T17:43:49.903Z,25.37
2023-02-08T17:46:20.362Z,27.73
2023-02-08T17:48:48.514Z,28.73
2023-02-08T17:51:18.535Z,29.52
2023-02-08T17:53:46.250Z,30.02
2023-02-08T17:56:16.181Z,26.77
2023-02-08T17:58:44.506Z,24.08
2023-02-08T18:01:18.035Z,22.10
2023-02-08T18:03:46.990Z,20.23
2023-02-08T18:06:15.207Z,20.17
2023-02-08T18:08:43.172Z,21.15
2023-02-08T18:11:13.039Z,23.40
2023-02-08T18:13:40.520Z,25.67
2023-02-08T18:16:16.970Z,24.45
2023-02-08T18:18:44.934Z,24.33
2023-02-08T18:21:17.461Z,23.62
2023-02-08T18:23:46.244Z,24.00
2023-02-08T18:26:16.449Z,25.73
2023-02-08T18:28:44.848Z,24.48
2023-02-08T18:31:15.224Z,25.88
2023-02-08T18:33:43.726Z,23.83
2023-02-08T18:36:12.416Z,23.50
2023-02-08T18:38:41.638Z,21.70
2023-02-08T18:41:10.341Z,20.85
2023-02-08T18:43:39.643Z,21.37
2023-02-08T18:46:09.924Z,20.23
2023-02-08T18:48:38.841Z,18.90
2023-02-08T18:51:07.447Z,18.25
2023-02-08T18:53:37.350Z,18.55
2023-02-08T18:56:06.636Z,17.77
2023-02-08T18:58:34.713Z,18.95
2023-02-08T19:01:11.391Z,18.65
2023-02-08T19:03:39.062Z,18.85
2023-02-08T19:06:09.364Z,19.90
2023-02-08T19:08:37.717Z,18.12
2023-02-08T19:11:06.022Z,19.35
2023-02-08T19:13:35.496Z,22.35
2023-02-08T19:16:02.967Z,19.95
2023-02-08T19:18:30.452Z,21.67
2023-02-08T19:21:10.566Z,21.20
2023-02-08T19:23:38.151Z,18.98
2023-02-08T19:26:14.640Z,18.05
2023-02-08T19:28:42.143Z,18.62
2023-02-08T19:31:15.789Z,17.20
2023-02-08T19:33:45.544Z,16.85
2023-02-08T19:36:19.552Z,18.48
2023-02-08T19:38:48.290Z,18.52
2023-02-08T19:41:22.428Z,17.50
2023-02-08T19:43:50.097Z,16.75
2023-02-08T19:46:22.185Z,16.52
2023-02-08T19:48:50.842Z,16.20
2023-02-08T19:51:19.456Z,16.02
2023-02-08T19:53:47.314Z,16.40
2023-02-08T19:56:16.670Z,15.60
2023-02-08T19:58:45.225Z,15.90
2023-02-08T20:01:20.660Z,16.95
2023-02-08T20:03:50.045Z,16.77
2023-02-08T20:06:24.848Z,16.10
2023-02-08T20:08:53.285Z,16.45
2023-02-08T20:11:25.796Z,19.55
2023-02-08T20:13:54.796Z,30.10
2023-02-08T20:16:22.721Z,25.52
2023-02-08T20:18:50.534Z,25.05
2023-02-08T20:21:18.801Z,21.55
2023-02-08T20:23:47.345Z,18.45
2023-02-08T20:26:26.533Z,18.20
2023-02-08T20:28:58.712Z,24.20
2023-02-08T20:31:31.474Z,28.30
2023-02-08T20:34:03.376Z,23.48
2023-02-08T20:36:33.367Z,23.93
2023-02-08T20:39:01.113Z,25.65
2023-02-08T20:41:31.149Z,27.58
2023-02-08T20:43:58.752Z,23.98
2023-02-08T20:46:30.693Z,24.63
2023-02-08T20:49:00.039Z,24.42
2023-02-08T20:51:28.794Z,24.08
2023-02-08T20:53:57.385Z,24.75
2023-02-08T20:56:27.967Z,24.52
2023-02-08T20:58:55.868Z,28.30
2023-02-08T21:01:27.763Z,30.10
2023-02-08T21:03:56.360Z,28.85
2023-02-08T21:06:32.326Z,27.52
2023-02-08T21:09:03.020Z,28.50
2023-02-08T21:11:31.703Z,26.25
2023-02-08T21:14:00.438Z,23.92
2023-02-08T21:16:28.193Z,26.52
2023-02-08T21:18:57.234Z,27.52
2023-02-08T21:21:25.678Z,25.30
2023-02-08T21:23:53.136Z,23.98
2023-02-08T21:26:21.229Z,23.48
2023-02-08T21:28:52.390Z,23.00
2023-02-08T21:31:22.095Z,22.00
2023-02-08T21:33:50.948Z,21.90
2023-02-08T21:36:21.080Z,22.08
2023-02-08T21:38:48.533Z,21.23
2023-02-08T21:41:20.424Z,21.52
2023-02-08T21:43:48.509Z,21.60
2023-02-08T21:46:17.034Z,20.27
2023-02-08T21:49:03.293Z,20.80
2023-02-08T21:51:49.601Z,20.33
2023-02-08T21:54:31.538Z,18.80
2023-02-08T21:57:00.465Z,19.05
2023-02-08T21:59:28.624Z,19.33
2023-02-08T22:01:56.018Z,19.35
2023-02-08T22:04:23.675Z,18.17
2023-02-08T22:06:52.095Z,18.62
2023-02-08T22:09:20.703Z,19.02
2023-02-08T22:15:30.584Z,22.75
2023-02-08T22:18:00.689Z,23.52
2023-02-08T22:20:29.210Z,25.67
2023-02-08T22:22:56.714Z,27.95
2023-02-08T22:25:24.434Z,31.83
2023-02-08T22:27:51.990Z,30.42
2023-02-08T22:30:19.893Z,28.38
2023-02-08T22:32:49.050Z,27.37
2023-02-08T22:35:17.746Z,28.08
2023-02-08T22:37:45.218Z,29.35
2023-02-08T22:40:13.281Z,29.80
2023-02-08T22:42:41.369Z,29.00
2023-02-08T22:45:09.006Z,28.70
2023-02-08T22:47:36.765Z,29.23
2023-02-08T22:50:05.577Z,28.20
2023-02-08T22:52:34.525Z,26.75
2023-02-08T22:55:04.123Z,27.55
2023-02-08T22:57:32.247Z,27.33
2023-02-08T22:59:59.700Z,28.58
2023-02-08T23:02:27.512Z,28.17
2023-02-08T23:04:54.978Z,28.00
2023-02-08T23:07:22.359Z,28.48
2023-02-08T23:09:50.128Z,27.40
2023-02-08T23:12:17.480Z,28.10
2023-02-08T23:14:44.874Z,28.33
2023-02-08T23:17:12.667Z,29.08
2023-02-08T23:19:40.897Z,29.42
2023-02-08T23:22:08.586Z,29.08
2023-02-08T23:24:36.217Z,29.77
2023-02-08T23:27:03.714Z,27.70
2023-02-08T23:29:31.138Z,28.23
2023-02-08T23:31:58.861Z,29.02
2023-02-08T23:34:26.260Z,27.13
2023-02-08T23:36:53.659Z,27.52
2023-02-08T23:39:21.328Z,25.23
2023-02-08T23:41:48.672Z,23.42
2023-02-08T23:44:16.068Z,23.52
2023-02-08T23:46:43.749Z,22.62
2023-02-08T23:49:11.191Z,21.05
2023-02-08T23:51:38.574Z,22.52
2023-02-08T23:54:06.350Z,21.30
2023-02-08T23:56:33.789Z,21.90
2023-02-08T23:59:01.193Z,21.80
